createdAt,value
2023-01-21T00:00:18.474Z,9.15
2023-01-21T00:02:46.499Z,7.43
2023-01-21T00:05:15.242Z,8.05
2023-01-21T00:07:43.472Z,7.47
2023-01-21T00:10:17.450Z,8.10
2023-01-21T00:12:46.994Z,8.20
2023-01-21T00:15:16.395Z,8.35
2023-01-21T00:17:44.750Z,6.93
2023-01-21T00:20:14.267Z,7.85
2023-01-21T00:22:45.107Z,8.98
2023-01-21T00:25:15.354Z,11.88
2023-01-21T00:27:43.362Z,14.70
2023-01-21T00:30:12.273Z,16.15
2023-01-21T00:32:40.517Z,13.93
2023-01-21T00:35:08.801Z,11.98
2023-01-21T00:37:36.647Z,9.55
2023-01-21T00:40:07.264Z,9.15
2023-01-21T00:42:37.365Z,8.23
2023-01-21T00:45:06.040Z,8.15
2023-01-21T00:47:35.198Z,9.48
2023-01-21T00:50:03.097Z,7.20
2023-01-21T00:52:31.117Z,8.60
2023-01-21T00:54:58.938Z,8.50
2023-01-21T00:57:30.367Z,7.40
2023-01-21T00:59:58.684Z,7.35
2023-01-21T01:02:28.431Z,7.50
2023-01-21T01:04:56.952Z,8.23
2023-01-21T01:07:25.596Z,6.82
2023-01-21T01:10:00.528Z,7.38
2023-01-21T01:12:31.497Z,7.03
2023-01-21T01:15:00.959Z,8.23
2023-01-21T01:17:29.257Z,8.40
2023-01-21T01:19:58.295Z,7.97
2023-01-21T01:22:26.347Z,7.47
2023-01-21T01:24:58.328Z,7.38
2023-01-21T01:27:26.463Z,7.40
2023-01-21T01:29:55.547Z,6.70
2023-01-21T01:32:23.671Z,7.15
2023-01-21T01:34:52.404Z,7.53
2023-01-21T01:37:20.570Z,6.30
2023-01-21T01:39:48.478Z,7.28
2023-01-21T01:42:18.078Z,6.78
2023-01-21T01:45:06.404Z,7.95
2023-01-21T01:47:49.477Z,7.00
2023-01-21T01:50:18.981Z,7.45
2023-01-21T01:52:48.607Z,6.47
2023-01-21T01:55:16.992Z,6.95
2023-01-21T01:57:47.108Z,7.22
2023-01-21T02:00:16.169Z,5.90
2023-01-21T02:03:04.871Z,7.70
2023-01-21T02:05:35.853Z,6.07
2023-01-21T02:08:04.153Z,7.45
2023-01-21T02:10:32.109Z,7.80
2023-01-21T02:13:00.453Z,7.20
2023-01-21T02:15:51.561Z,7.05
2023-01-21T02:18:31.297Z,6.60
2023-01-21T02:21:04.458Z,5.35
2023-01-21T02:24:07.186Z,6.43
2023-01-21T02:26:52.200Z,6.60
2023-01-21T02:29:45.924Z,5.80
2023-01-21T02:32:28.535Z,5.90
2023-01-21T02:35:13.064Z,6.75
2023-01-21T02:37:44.149Z,7.82
2023-01-21T02:40:29.045Z,6.93
2023-01-21T02:43:12.993Z,6.68
2023-01-21T02:46:34.786Z,6.40
2023-01-21T02:49:10.099Z,8.70
2023-01-21T02:51:48.792Z,10.70
2023-01-21T02:54:40.331Z,8.73
2023-01-21T02:57:14.195Z,6.00
2023-01-21T02:59:44.252Z,5.65
2023-01-21T03:02:31.020Z,5.88
2023-01-21T03:05:14.649Z,6.63
2023-01-21T03:08:17.092Z,6.72
2023-01-21T03:11:04.398Z,8.15
2023-01-21T03:14:06.903Z,9.80
2023-01-21T03:16:59.172Z,8.57
2023-01-21T03:19:35.913Z,7.90
2023-01-21T03:22:09.500Z,9.30
2023-01-21T03:24:38.976Z,9.00
2023-01-21T03:27:07.485Z,10.18
2023-01-21T03:29:37.103Z,14.25
2023-01-21T03:32:06.388Z,11.75
2023-01-21T03:34:36.347Z,10.45
2023-01-21T03:37:28.415Z,13.75
2023-01-21T03:40:32.637Z,13.15
2023-01-21T03:43:00.818Z,10.35
2023-01-21T03:45:54.702Z,8.85
2023-01-21T03:48:33.675Z,8.00
2023-01-21T03:51:05.391Z,10.65
2023-01-21T03:53:34.799Z,10.70
2023-01-21T03:56:04.506Z,9.60
2023-01-21T03:58:32.757Z,9.05
2023-01-21T04:01:01.587Z,8.75
2023-01-21T04:03:30.006Z,7.85
2023-01-21T04:05:58.555Z,5.90
2023-01-21T04:08:26.454Z,6.40
2023-01-21T04:10:54.373Z,5.72
2023-01-21T04:13:22.540Z,5.38
2023-01-21T04:15:50.546Z,7.40
2023-01-21T04:18:20.617Z,6.30
2023-01-21T08:21:27.183Z,11.57
2023-01-21T08:23:56.201Z,9.98
2023-01-21T08:26:28.157Z,9.65
2023-01-21T08:29:01.377Z,9.40
2023-01-21T08:31:29.738Z,9.02
2023-01-21T08:34:43.984Z,8.95
2023-01-21T08:37:31.211Z,9.40
2023-01-21T08:40:04.969Z,8.15
2023-01-21T08:43:04.893Z,8.50
2023-01-21T08:46:06.404Z,8.32
2023-01-21T08:48:36.811Z,8.68
2023-01-21T08:51:34.953Z,8.98
2023-01-21T08:55:59.063Z,8.82
2023-01-21T09:00:13.060Z,8.75
2023-01-21T09:04:22.337Z,9.02
2023-01-21T09:06:59.620Z,8.02
2023-01-21T09:10:58.451Z,8.43
2023-01-21T09:13:43.832Z,9.18
2023-01-21T09:17:06.073Z,9.75
2023-01-21T09:20:02.378Z,8.98
2023-01-21T09:22:50.896Z,9.75
2023-01-21T09:25:34.139Z,8.75
2023-01-21T09:29:59.777Z,8.73
2023-01-21T09:32:57.569Z,8.07
2023-01-21T09:38:54.054Z,8.27
2023-01-21T09:41:39.583Z,9.00
2023-01-21T09:44:15.668Z,9.48
2023-01-21T09:47:06.185Z,9.23
2023-01-21T09:49:45.360Z,8.25
2023-01-21T09:52:49.078Z,8.98
2023-01-21T09:55:19.920Z,8.93
2023-01-21T09:58:16.054Z,8.23
2023-01-21T10:00:54.848Z,8.93
2023-01-21T10:03:49.047Z,8.32
2023-01-21T10:06:48.576Z,8.73
2023-01-21T10:10:14.943Z,7.25
2023-01-21T10:12:58.733Z,8.77
2023-01-21T10:15:59.015Z,8.75
2023-01-21T10:18:30.890Z,8.55
2023-01-21T10:21:22.746Z,7.65
2023-01-21T10:23:57.801Z,8.43
2023-01-21T10:26:28.344Z,7.65
2023-01-21T10:29:14.644Z,8.13
2023-01-21T10:32:02.772Z,8.18
2023-01-21T10:35:24.157Z,8.65
2023-01-21T10:50:08.325Z,9.25
2023-01-21T11:01:19.922Z,7.82
2023-01-21T11:08:10.771Z,9.10
2023-01-21T11:19:15.053Z,8.57
2023-01-21T11:22:13.422Z,9.32
2023-01-21T11:24:47.059Z,8.70
2023-01-21T11:27:21.459Z,9.73
2023-01-21T11:29:51.025Z,8.93
2023-01-21T11:33:11.748Z,8.95
2023-01-21T11:35:43.673Z,7.90
2023-01-21T11:38:30.119Z,8.52
2023-01-21T11:41:14.031Z,7.40
2023-01-21T11:43:56.817Z,8.85
2023-01-21T11:46:27.559Z,9.18
2023-01-21T11:49:15.684Z,8.82
2023-01-21T11:51:46.951Z,9.52
2023-01-21T11:54:20.148Z,8.95
2023-01-21T11:57:03.190Z,9.02
2023-01-21T11:59:39.704Z,9.43
2023-01-21T12:02:22.840Z,9.35
2023-01-21T12:05:12.817Z,9.20
2023-01-21T12:07:44.930Z,8.80
2023-01-21T12:10:13.552Z,9.10
2023-01-21T12:12:54.026Z,8.40
2023-01-21T12:34:09.163Z,10.02
2023-01-21T12:40:31.699Z,8.93
2023-01-21T12:43:16.380Z,9.95
2023-01-21T12:46:12.933Z,8.70
2023-01-21T12:49:18.629Z,9.77
2023-01-21T12:52:08.919Z,9.77
2023-01-21T12:58:49.387Z,8.68
2023-01-21T13:01:39.452Z,9.27
2023-01-21T17:11:10.481Z,23.80
2023-01-21T17:13:43.670Z,22.50
2023-01-21T17:16:36.324Z,22.63
2023-01-21T17:19:42.729Z,23.30
2023-01-21T17:22:15.382Z,24.10
2023-01-21T17:25:25.395Z,22.95
2023-01-21T17:28:39.689Z,22.07
2023-01-21T17:31:26.801Z,21.80
2023-01-21T17:34:15.501Z,24.20
2023-01-21T17:36:45.366Z,22.33
2023-01-21T17:39:17.147Z,22.20
2023-01-21T17:41:46.640Z,22.40
2023-01-21T17:44:24.517Z,21.77
2023-01-21T17:46:56.315Z,21.65
2023-01-21T17:49:24.830Z,21.63
2023-01-21T17:51:54.368Z,21.10
2023-01-21T17:54:29.774Z,20.08
2023-01-21T17:57:03.646Z,20.52
2023-01-21T17:59:38.295Z,23.88
2023-01-21T18:02:29.316Z,25.63
2023-01-21T18:04:59.526Z,24.60
2023-01-21T18:07:38.152Z,27.08
2023-01-21T18:10:24.568Z,25.05
2023-01-21T18:16:47.657Z,24.35
2023-01-21T18:19:51.143Z,21.27
2023-01-21T18:22:26.885Z,19.02
2023-01-21T18:25:12.954Z,19.10
2023-01-21T18:28:47.262Z,20.50
2023-01-21T18:31:26.517Z,26.10
2023-01-21T18:34:04.525Z,35.45
2023-01-21T18:36:34.114Z,31.25
2023-01-21T18:39:02.822Z,30.08
2023-01-21T18:41:39.967Z,26.60
2023-01-21T18:44:11.144Z,26.25
2023-01-21T18:46:42.355Z,25.98
2023-01-21T18:55:04.919Z,37.85
2023-01-21T18:57:34.657Z,37.33
2023-01-21T19:00:30.381Z,32.70
2023-01-21T19:03:00.356Z,30.08
2023-01-21T19:05:34.227Z,28.38
2023-01-21T19:08:07.354Z,33.85
2023-01-21T19:10:37.168Z,33.22
2023-01-21T19:13:09.006Z,31.65
2023-01-21T19:15:37.104Z,30.05
2023-01-21T19:18:10.931Z,31.30
2023-01-21T19:20:42.646Z,29.67
2023-01-21T19:23:15.781Z,30.13
2023-01-21T19:25:52.722Z,28.95
2023-01-21T19:28:20.756Z,25.70
2023-01-21T19:30:50.767Z,27.27
2023-01-21T19:33:19.962Z,24.58
2023-01-21T19:36:02.587Z,19.95
2023-01-21T19:38:32.500Z,18.85
2023-01-21T19:41:01.145Z,20.27
2023-01-21T19:43:56.003Z,22.00
2023-01-21T19:46:24.177Z,21.13
2023-01-21T19:48:55.583Z,22.45
2023-01-21T19:51:23.591Z,20.88
2023-01-21T19:53:55.845Z,20.00
2023-01-21T19:56:25.639Z,21.52
2023-01-21T19:58:53.904Z,21.50
2023-01-21T20:01:24.472Z,21.85
2023-01-21T20:04:00.024Z,20.95
2023-01-21T20:06:31.832Z,20.42
2023-01-21T20:09:00.659Z,17.67
2023-01-21T20:11:29.197Z,17.98
2023-01-21T20:13:57.211Z,18.52
2023-01-21T20:16:27.555Z,19.98
2023-01-21T20:18:56.447Z,17.50
2023-01-21T20:21:25.708Z,15.32
2023-01-21T20:23:53.633Z,15.38
2023-01-21T20:26:44.581Z,17.77
2023-01-21T20:29:13.611Z,16.80
2023-01-21T20:31:48.738Z,17.45
2023-01-21T20:34:17.041Z,21.63
2023-01-21T20:36:48.580Z,22.30
2023-01-21T20:39:19.202Z,20.67
2023-01-21T20:41:47.351Z,23.90
2023-01-21T20:44:23.269Z,24.40
2023-01-21T20:46:51.856Z,22.55
2023-01-21T20:49:19.870Z,20.05
2023-01-21T20:51:47.752Z,21.02
2023-01-21T20:54:15.722Z,25.00
2023-01-21T20:56:46.017Z,22.40
2023-01-21T20:59:15.253Z,21.63
2023-01-21T21:01:45.567Z,21.13
2023-01-21T21:04:14.155Z,21.77
2023-01-21T21:06:45.973Z,22.98
2023-01-21T21:09:13.827Z,18.05
2023-01-21T21:11:44.224Z,15.20
2023-01-21T21:14:13.697Z,14.68
2023-01-21T21:16:41.845Z,14.23
2023-01-21T21:19:12.128Z,13.90
2023-01-21T21:21:40.082Z,15.10
2023-01-21T21:24:13.876Z,14.40
2023-01-21T21:26:44.562Z,17.05
2023-01-21T21:29:15.775Z,16.50
2023-01-21T21:31:43.778Z,15.32
2023-01-21T21:34:32.018Z,13.25
2023-01-21T21:36:59.802Z,12.80
2023-01-21T21:39:27.605Z,15.52
2023-01-21T21:42:16.015Z,20.42
2023-01-21T21:44:44.574Z,19.02
2023-01-21T21:47:32.380Z,17.77
2023-01-21T21:50:10.011Z,19.35
2023-01-21T21:52:37.895Z,18.33
2023-01-21T21:55:07.469Z,19.73
2023-01-21T21:57:36.278Z,18.08
2023-01-21T22:00:08.430Z,20.40
2023-01-21T22:02:38.727Z,18.88
2023-01-21T22:05:16.369Z,16.13
2023-01-21T22:07:44.464Z,17.38
2023-01-21T22:10:12.944Z,19.80
2023-01-21T22:12:42.258Z,18.27
2023-01-21T22:15:11.849Z,19.23
2023-01-21T22:17:39.979Z,17.35
2023-01-21T22:20:08.462Z,15.75
2023-01-21T22:22:36.380Z,16.95
2023-01-21T22:25:14.752Z,17.95
2023-01-21T22:27:45.873Z,15.85
2023-01-21T22:30:15.948Z,17.30
2023-01-21T22:32:45.157Z,17.70
2023-01-21T22:35:12.999Z,16.15
2023-01-21T22:37:41.437Z,17.10
2023-01-21T22:40:10.631Z,16.70
2023-01-21T22:42:42.397Z,16.55
2023-01-21T22:45:11.295Z,16.92
2023-01-21T22:47:39.314Z,15.60
2023-01-21T22:50:08.328Z,15.93
2023-01-21T22:52:37.093Z,16.00
2023-01-21T22:55:07.179Z,14.23
2023-01-21T22:57:37.163Z,15.32
2023-01-21T23:00:06.810Z,16.27
2023-01-21T23:02:36.158Z,14.82
2023-01-21T23:05:08.306Z,15.35
2023-01-21T23:07:36.383Z,15.88
2023-01-21T23:10:07.930Z,16.10
2023-01-21T23:12:36.561Z,17.23
2023-01-21T23:15:06.585Z,16.38
2023-01-21T23:17:35.027Z,15.88
2023-01-21T23:20:03.092Z,15.90
2023-01-21T23:22:32.755Z,16.35
2023-01-21T23:25:01.102Z,16.20
2023-01-21T23:27:31.537Z,16.90
2023-01-21T23:30:01.094Z,17.35
2023-01-21T23:32:29.075Z,17.02
2023-01-21T23:34:58.343Z,17.48
2023-01-21T23:37:26.340Z,16.35
2023-01-21T23:39:54.808Z,17.13
2023-01-21T23:42:27.091Z,16.83
2023-01-21T23:44:55.891Z,16.60
2023-01-21T23:47:24.337Z,17.02
2023-01-21T23:49:52.593Z,16.85
2023-01-21T23:52:21.652Z,17.30
2023-01-21T23:54:49.937Z,15.07
2023-01-21T23:57:17.804Z,15.57
2023-01-21T23:59:48.321Z,15.23
